Pagrindinis puslapis
METAR-TAF:

METAR-TAF

Oro uostai :

Trolhetanas-Venešborgas, Švedija

platuma: 58-19N, ilguma: 012-21E, Aukštis: 41 m

Dabartinis oras

Ataskaita buvo paskelbta 13 minutes, ne 06:20 UTC
Vėjas 2 kt nuo kintamojo kryptimis
Temperatūra 0°C
Drėgmė 86%
Slėgis 1025 hPa
Matomumas 10 km arba daugiau

METAR: ESGT 100620Z AUTO VRB02KT 9999 BKN130/// BKN160/// M00/M02 Q1025

Laikas: 08:33 (06:33 UTC)

Prognozė

Ataskaita buvo paskelbta 1 valandą ir 3 minutes, ne 05:30 UTC
Prognozė galioja nuo 10 metu 06 UTC su 10 metu 14 UTC
Vėjas 2 kt nuo kintamojo kryptimis
Matomumas 10 km arba daugiau
nėra debesų žemiau 1500 m ir nėra kamuolinių lietaus debesų

TAF: ESGT 100530Z 1006/1014 VRB02KT CAVOK

Orai ataskaitas ir orų prognozės (METAR, TAF).

turimą stotys yra geltonos ir raudonos taškus žemėlapyje.

Perkelti pele per norėdami pamatyti stoties vardą.

Tada spustelėkite, norėdami matyti oro stebėjimo ir prognozės.

Norėdami pakeisti žemėlapį: spustelėkite ant žalios mygtukų su juodo kryžiaus žemyn,; žalią mygtuką su brūkšneliu, jei norite nutolinti; arba žalių rodyklių gretimoms žemėlapius.


METAR-TAF: